createdAt,value
2023-01-01T00:00:51.523Z,4.57
2023-01-01T00:03:56.830Z,4.03
2023-01-01T00:06:59.730Z,3.97
2023-01-01T00:10:21.255Z,4.43
2023-01-01T00:13:24.007Z,4.40
2023-01-01T00:16:26.944Z,4.45
2023-01-01T00:19:29.788Z,4.13
2023-01-01T00:22:54.010Z,4.00
2023-01-01T00:25:55.200Z,4.72
2023-01-01T00:28:58.051Z,4.25
2023-01-01T00:32:01.154Z,4.50
2023-01-01T00:35:04.503Z,4.57
2023-01-01T00:38:07.704Z,3.80
2023-01-01T00:41:11.319Z,4.72
2023-01-01T00:44:14.078Z,4.38
2023-01-01T00:47:16.890Z,4.40
2023-01-01T00:50:21.391Z,4.40
2023-01-01T00:53:24.126Z,3.90
2023-01-01T00:56:26.968Z,4.03
2023-01-01T00:59:29.674Z,4.13
2023-01-01T01:02:32.643Z,4.50
2023-01-01T01:05:38.352Z,4.47
2023-01-01T01:08:43.961Z,4.20
2023-01-01T01:11:46.764Z,4.20
2023-01-01T01:14:49.543Z,4.00
2023-01-01T01:17:52.293Z,4.40
2023-01-01T01:20:55.175Z,3.87
2023-01-01T01:24:00.036Z,4.20
2023-01-01T01:27:02.810Z,4.22
2023-01-01T01:30:06.202Z,3.83
2023-01-01T01:33:09.530Z,3.70
2023-01-01T01:36:13.160Z,4.32
2023-01-01T01:39:15.927Z,4.45
2023-01-01T01:42:19.266Z,4.05
2023-01-01T01:45:22.087Z,4.07
2023-01-01T01:48:25.450Z,3.90
2023-01-01T01:51:34.089Z,3.72
2023-01-01T01:54:37.245Z,3.22
2023-01-01T01:57:41.289Z,4.28
2023-01-01T02:00:44.249Z,3.93
2023-01-01T02:03:59.091Z,3.80
2023-01-01T02:07:01.979Z,4.57
2023-01-01T02:10:05.099Z,4.57
2023-01-01T02:13:08.035Z,4.20
2023-01-01T02:16:25.638Z,3.93
2023-01-01T02:19:40.505Z,4.10
2023-01-01T02:23:05.018Z,4.28
2023-01-01T02:26:10.492Z,4.03
2023-01-01T02:29:17.754Z,3.50
2023-01-01T02:32:25.272Z,3.57
2023-01-01T02:36:01.876Z,4.20
2023-01-01T02:39:07.174Z,3.83
2023-01-01T02:42:09.945Z,3.72
2023-01-01T02:45:12.760Z,4.07
2023-01-01T02:48:47.734Z,4.03
2023-01-01T02:52:08.809Z,4.28
2023-01-01T02:55:37.414Z,4.18
2023-01-01T02:59:06.421Z,3.47
2023-01-01T03:02:19.607Z,4.07
2023-01-01T03:05:35.199Z,4.20
2023-01-01T03:08:50.046Z,3.63
2023-01-01T03:12:10.120Z,3.42
2023-01-01T03:15:21.843Z,3.93
2023-01-01T03:18:34.162Z,3.70
2023-01-01T03:21:43.843Z,3.63
2023-01-01T03:25:04.639Z,3.65
2023-01-01T03:28:12.710Z,4.27
2023-01-01T03:31:19.748Z,4.27
2023-01-01T03:34:30.070Z,3.90
2023-01-01T03:37:33.665Z,3.55
2023-01-01T03:40:38.618Z,3.83
2023-01-01T03:43:47.244Z,4.47
2023-01-01T03:46:50.783Z,4.35
2023-01-01T03:49:53.613Z,3.90
2023-01-01T03:52:56.371Z,3.47
2023-01-01T03:56:13.812Z,3.83
2023-01-01T03:59:28.275Z,4.03
2023-01-01T04:02:43.696Z,3.72
2023-01-01T04:05:46.784Z,3.97
2023-01-01T04:08:54.191Z,3.83
2023-01-01T04:12:06.564Z,3.53
2023-01-01T04:15:09.681Z,3.88
2023-01-01T04:18:12.523Z,3.50
2023-01-01T04:21:15.233Z,3.80
2023-01-01T04:24:18.129Z,3.60
2023-01-01T04:27:20.854Z,4.20
2023-01-01T04:30:23.706Z,3.65
2023-01-01T04:33:27.682Z,3.40
2023-01-01T04:36:30.483Z,3.87
2023-01-01T04:39:33.306Z,3.83
2023-01-01T04:42:36.596Z,3.40
2023-01-01T04:45:39.362Z,3.70
2023-01-01T04:48:42.208Z,3.57
2023-01-01T04:51:45.253Z,3.70
2023-01-01T04:54:48.042Z,3.17
2023-01-01T04:57:50.773Z,4.22
2023-01-01T05:00:53.891Z,3.57
2023-01-01T05:03:57.763Z,3.38
2023-01-01T05:07:00.662Z,3.70
2023-01-01T05:10:03.609Z,3.78
2023-01-01T05:13:09.196Z,4.13
2023-01-01T05:16:14.680Z,4.88
2023-01-01T05:19:17.895Z,3.35
2023-01-01T05:22:21.087Z,3.90
2023-01-01T05:25:24.261Z,3.40
2023-01-01T05:28:27.336Z,3.92
2023-01-01T05:31:34.007Z,3.45
2023-01-01T05:37:38.397Z,3.27
2023-01-01T05:40:41.306Z,3.65
2023-01-01T05:43:44.491Z,3.83
2023-01-01T05:46:47.224Z,3.33
2023-01-01T05:49:50.255Z,3.23
2023-01-01T05:52:53.693Z,3.17
2023-01-01T05:55:56.965Z,3.40
2023-01-01T05:58:59.773Z,2.95
2023-01-01T06:02:02.759Z,3.63
2023-01-01T06:05:05.895Z,3.20
2023-01-01T06:08:08.638Z,3.40
2023-01-01T06:11:13.011Z,3.90
2023-01-01T06:14:15.842Z,3.40
2023-01-01T06:17:18.565Z,3.53
2023-01-01T06:20:21.525Z,3.50
2023-01-01T06:23:24.237Z,3.67
2023-01-01T06:26:33.005Z,3.35
2023-01-01T06:29:38.088Z,3.40
2023-01-01T06:32:41.183Z,3.40
2023-01-01T06:35:43.871Z,3.17
2023-01-01T06:38:50.184Z,3.53
2023-01-01T06:41:52.936Z,3.22
2023-01-01T06:44:55.653Z,3.43
2023-01-01T06:47:58.452Z,3.17
2023-01-01T06:51:10.203Z,3.60
2023-01-01T06:54:13.002Z,3.40
2023-01-01T06:57:16.188Z,3.83
2023-01-01T07:00:19.351Z,3.70
2023-01-01T07:03:22.290Z,4.30
2023-01-01T07:06:26.122Z,3.35
2023-01-01T07:09:29.028Z,3.83
2023-01-01T07:12:32.094Z,3.47
2023-01-01T07:15:34.861Z,4.28
2023-01-01T07:18:39.158Z,3.90
2023-01-01T07:21:45.165Z,4.50
2023-01-01T07:24:48.486Z,4.57
2023-01-01T07:27:51.220Z,4.88
2023-01-01T07:30:54.566Z,4.28
2023-01-01T07:33:57.668Z,4.68
2023-01-01T07:37:00.474Z,3.87
2023-01-01T07:40:03.510Z,4.07
2023-01-01T07:43:07.459Z,3.90
2023-01-01T07:46:13.987Z,3.80
2023-01-01T07:49:16.767Z,3.97
2023-01-01T07:52:20.190Z,4.37
2023-01-01T07:55:23.329Z,3.63
2023-01-01T07:58:26.309Z,4.30
2023-01-01T08:01:29.433Z,3.53
2023-01-01T08:04:32.374Z,4.22
2023-01-01T08:07:35.077Z,4.30
2023-01-01T08:10:38.185Z,3.80
2023-01-01T08:13:40.940Z,3.88
2023-01-01T08:16:43.717Z,3.60
2023-01-01T08:19:47.520Z,3.83
2023-01-01T08:22:50.385Z,3.90
2023-01-01T08:25:53.166Z,4.18
2023-01-01T08:28:57.501Z,3.60
2023-01-01T08:32:00.419Z,3.97
2023-01-01T08:35:03.865Z,3.85
2023-01-01T08:38:06.653Z,3.77
2023-01-01T08:41:09.916Z,3.75
2023-01-01T08:44:12.683Z,3.75
2023-01-01T08:47:26.506Z,3.70
2023-01-01T08:50:29.318Z,3.80
2023-01-01T08:53:33.272Z,3.53
2023-01-01T08:56:37.776Z,3.60
2023-01-01T08:59:40.995Z,3.70
2023-01-01T09:02:44.022Z,3.85
2023-01-01T09:05:47.201Z,4.10
2023-01-01T09:08:49.992Z,4.07
2023-01-01T09:11:54.546Z,3.60
2023-01-01T09:14:57.308Z,3.55
2023-01-01T09:18:00.069Z,3.92
2023-01-01T09:21:02.855Z,3.92
2023-01-01T09:24:06.071Z,3.27
2023-01-01T09:27:08.930Z,3.10
2023-01-01T09:30:12.778Z,3.50
2023-01-01T09:33:15.537Z,3.55
2023-01-01T09:36:18.266Z,3.70
2023-01-01T09:39:21.225Z,3.80
2023-01-01T09:42:39.956Z,3.85
2023-01-01T09:45:59.073Z,3.83
2023-01-01T09:49:06.849Z,3.78
2023-01-01T09:52:13.172Z,3.80
2023-01-01T09:55:22.978Z,3.30
2023-01-01T09:58:28.674Z,3.63
2023-01-01T10:01:31.509Z,4.03
2023-01-01T10:04:55.288Z,3.45
2023-01-01T10:08:28.497Z,3.67
2023-01-01T10:11:45.773Z,3.47
2023-01-01T10:15:00.888Z,3.47
2023-01-01T10:18:11.655Z,3.30
2023-01-01T10:21:24.604Z,3.72
2023-01-01T10:24:36.380Z,3.60
2023-01-01T10:27:52.533Z,3.30
2023-01-01T10:31:26.211Z,3.55
2023-01-01T10:34:32.354Z,3.53
2023-01-01T10:37:37.749Z,3.40
2023-01-01T10:40:40.593Z,3.70
2023-01-01T10:43:45.051Z,3.40
2023-01-01T10:46:52.014Z,3.15
2023-01-01T10:49:57.155Z,3.63
2023-01-01T10:53:00.451Z,3.08
2023-01-01T10:56:06.666Z,3.05
2023-01-01T10:59:38.818Z,3.67
2023-01-01T11:02:41.844Z,3.80
2023-01-01T11:06:20.853Z,3.65
2023-01-01T11:09:26.865Z,3.38
2023-01-01T11:13:03.778Z,3.00
2023-01-01T11:15:57.216Z,3.03
2023-01-01T11:19:06.079Z,3.22
2023-01-01T11:22:35.932Z,3.20
2023-01-01T11:25:38.714Z,3.00
2023-01-01T11:28:41.991Z,3.25
2023-01-01T11:31:47.141Z,3.20
2023-01-01T11:35:00.450Z,3.42
2023-01-01T11:38:03.936Z,3.03
2023-01-01T11:41:07.767Z,2.78
2023-01-01T11:44:13.304Z,3.45
2023-01-01T11:47:25.246Z,2.83
2023-01-01T11:50:34.596Z,3.13
2023-01-01T11:53:42.186Z,3.13
2023-01-01T11:56:45.609Z,2.70
2023-01-01T12:00:04.593Z,3.17
2023-01-01T12:03:35.673Z,3.20
2023-01-01T12:06:44.860Z,3.08
2023-01-01T12:10:04.954Z,3.30
2023-01-01T12:13:17.859Z,2.95
2023-01-01T12:16:26.703Z,3.42
2023-01-01T12:19:36.479Z,2.80
2023-01-01T12:22:40.319Z,2.90
2023-01-01T12:25:47.018Z,3.47
2023-01-01T12:29:17.420Z,3.00
2023-01-01T12:32:20.171Z,3.53
2023-01-01T12:35:41.731Z,2.60
2023-01-01T12:39:35.628Z,2.83
2023-01-01T12:43:05.104Z,2.90
2023-01-01T12:46:23.371Z,3.05
2023-01-01T12:49:54.674Z,3.00
2023-01-01T12:53:20.826Z,2.90
2023-01-01T12:56:49.096Z,2.92
2023-01-01T12:59:53.665Z,3.05
2023-01-01T13:03:08.078Z,2.67
2023-01-01T13:06:17.382Z,2.83
2023-01-01T13:09:24.274Z,3.17
2023-01-01T13:12:27.244Z,2.83
2023-01-01T13:15:39.066Z,2.70
2023-01-01T13:18:41.857Z,2.85
2023-01-01T13:21:44.641Z,2.63
2023-01-01T13:25:24.299Z,2.80
2023-01-01T13:28:27.080Z,2.83
2023-01-01T13:31:39.155Z,2.55
2023-01-01T13:34:43.643Z,2.90
2023-01-01T13:37:47.157Z,3.05
2023-01-01T13:40:51.464Z,2.60
2023-01-01T13:44:00.324Z,2.50
2023-01-01T13:47:24.876Z,2.90
2023-01-01T13:50:46.225Z,2.40
2023-01-01T13:54:04.996Z,2.33
2023-01-01T13:57:41.518Z,2.70
2023-01-01T14:01:04.877Z,3.03
2023-01-01T14:04:21.003Z,2.40
2023-01-01T14:07:51.580Z,2.67
2023-01-01T14:10:55.605Z,2.63
2023-01-01T14:13:58.319Z,2.67
2023-01-01T14:17:06.145Z,2.58
2023-01-01T14:20:09.413Z,2.47
2023-01-01T14:23:34.126Z,2.65
2023-01-01T14:26:39.302Z,2.55
2023-01-01T14:29:45.998Z,2.37
2023-01-01T14:32:57.489Z,2.60
2023-01-01T14:36:02.913Z,2.72
2023-01-01T14:39:27.957Z,2.35
2023-01-01T14:42:32.158Z,2.65
2023-01-01T14:45:36.681Z,2.50
2023-01-01T14:48:44.748Z,2.45
2023-01-01T14:52:10.584Z,2.95
2023-01-01T14:55:19.304Z,2.60
2023-01-01T14:58:28.367Z,2.92
2023-01-01T15:01:31.322Z,3.13
2023-01-01T15:04:34.219Z,1.98
2023-01-01T15:07:36.981Z,3.28
2023-01-01T15:10:41.793Z,2.90
2023-01-01T15:13:56.293Z,2.97
2023-01-01T15:17:07.915Z,2.50
2023-01-01T15:20:22.529Z,2.83
2023-01-01T15:23:25.361Z,2.40
2023-01-01T15:26:45.151Z,2.60
2023-01-01T15:29:48.118Z,2.60
2023-01-01T15:32:51.035Z,2.90
2023-01-01T15:36:00.956Z,2.30
2023-01-01T15:39:03.778Z,2.78
2023-01-01T15:42:37.773Z,2.17
2023-01-01T15:45:42.106Z,2.75
2023-01-01T15:48:52.480Z,2.50
2023-01-01T15:52:03.852Z,2.50
2023-01-01T15:55:07.471Z,2.45
2023-01-01T15:58:24.079Z,2.00
2023-01-01T16:01:32.156Z,2.90
2023-01-01T16:04:34.940Z,2.13
2023-01-01T16:07:37.767Z,2.60
2023-01-01T16:10:42.785Z,2.63
2023-01-01T16:13:45.843Z,2.53
2023-01-01T16:16:57.526Z,2.60
2023-01-01T16:20:01.263Z,2.93
2023-01-01T16:23:04.070Z,2.50
2023-01-01T16:26:06.841Z,2.60
2023-01-01T16:29:10.371Z,2.70
2023-01-01T16:32:18.111Z,2.78
2023-01-01T16:35:21.322Z,2.13
2023-01-01T16:38:24.217Z,2.78
2023-01-01T16:41:31.216Z,2.28
2023-01-01T16:44:33.981Z,2.25
2023-01-01T16:47:36.688Z,2.45
2023-01-01T16:50:40.611Z,2.30
2023-01-01T16:53:43.327Z,2.30
2023-01-01T16:56:46.261Z,2.58
2023-01-01T16:59:49.003Z,2.40
2023-01-01T17:02:52.122Z,2.28
2023-01-01T17:05:55.116Z,2.20
2023-01-01T17:09:00.523Z,2.35
2023-01-01T17:12:03.326Z,2.83
2023-01-01T17:15:06.911Z,2.70
2023-01-01T17:18:11.213Z,2.78
2023-01-01T17:21:14.285Z,2.27
2023-01-01T17:24:18.863Z,2.47
2023-01-01T17:27:21.631Z,2.45
2023-01-01T17:30:27.014Z,2.33
2023-01-01T17:33:30.154Z,2.50
2023-01-01T17:36:33.193Z,2.70
2023-01-01T17:39:36.498Z,2.50
2023-01-01T17:42:39.542Z,2.80
2023-01-01T17:45:43.687Z,2.60
2023-01-01T17:48:46.931Z,2.45
2023-01-01T17:52:08.190Z,2.27
2023-01-01T17:55:11.254Z,2.10
2023-01-01T17:58:14.497Z,2.58
2023-01-01T18:01:37.918Z,2.55
2023-01-01T18:04:41.989Z,2.30
2023-01-01T18:07:46.095Z,2.47
2023-01-01T18:10:56.351Z,2.17
2023-01-01T18:14:02.190Z,3.00
2023-01-01T18:17:05.508Z,1.95
2023-01-01T18:20:08.862Z,2.78
2023-01-01T18:23:14.059Z,2.50
2023-01-01T18:26:18.186Z,2.33
2023-01-01T18:29:21.401Z,2.55
2023-01-01T18:32:24.620Z,2.30
2023-01-01T18:35:28.094Z,2.30
2023-01-01T18:38:31.201Z,2.47
2023-01-01T18:41:56.346Z,2.60
2023-01-01T18:45:02.614Z,2.60
2023-01-01T18:48:13.154Z,2.20
2023-01-01T18:51:24.288Z,2.08
2023-01-01T18:54:30.198Z,2.60
2023-01-01T18:57:33.703Z,2.58
2023-01-01T19:00:38.649Z,2.80
2023-01-01T19:03:42.261Z,2.30
2023-01-01T19:06:46.124Z,2.20
2023-01-01T19:09:54.151Z,2.30
2023-01-01T19:13:01.220Z,2.47
2023-01-01T19:16:13.295Z,2.95
2023-01-01T19:19:20.206Z,2.38
2023-01-01T19:22:27.814Z,2.60
2023-01-01T19:25:36.210Z,2.30
2023-01-01T19:28:41.685Z,2.72
2023-01-01T19:31:47.406Z,2.10
2023-01-01T19:34:50.553Z,2.53
2023-01-01T19:37:53.611Z,2.17
2023-01-01T19:40:58.069Z,2.20
2023-01-01T19:44:02.590Z,1.90
2023-01-01T19:47:05.754Z,2.30
2023-01-01T19:50:10.605Z,2.92
2023-01-01T19:53:14.856Z,2.53
2023-01-01T19:56:18.660Z,2.00
2023-01-01T19:59:29.268Z,2.50
2023-01-01T20:02:46.386Z,2.55
2023-01-01T20:05:51.680Z,2.30
2023-01-01T20:08:57.041Z,2.30
2023-01-01T20:12:03.631Z,2.63
2023-01-01T20:15:08.416Z,2.20
2023-01-01T20:18:14.175Z,2.63
2023-01-01T20:21:36.925Z,2.45
2023-01-01T20:24:45.653Z,2.87
2023-01-01T20:28:08.060Z,3.37
2023-01-01T20:31:13.526Z,2.60
2023-01-01T20:34:19.573Z,2.80
2023-01-01T20:37:39.498Z,2.47
2023-01-01T20:40:44.011Z,2.37
2023-01-01T20:43:48.375Z,2.40
2023-01-01T20:46:54.254Z,2.28
2023-01-01T20:49:58.792Z,2.45
2023-01-01T20:53:03.540Z,2.50
2023-01-01T20:56:08.817Z,2.10
2023-01-01T21:02:40.436Z,2.13
2023-01-01T21:05:44.458Z,2.40
2023-01-01T21:08:48.674Z,2.23
2023-01-01T21:11:52.817Z,2.50
2023-01-01T21:15:00.375Z,2.22
2023-01-01T21:18:06.277Z,3.25
2023-01-01T21:21:24.518Z,2.40
2023-01-01T21:24:38.439Z,2.45
2023-01-01T21:27:41.384Z,2.30
2023-01-01T21:30:53.412Z,2.35
2023-01-01T21:33:56.161Z,2.00
2023-01-01T21:37:37.190Z,2.60
2023-01-01T21:40:53.527Z,2.42
2023-01-01T21:43:58.820Z,2.75
2023-01-01T21:47:02.344Z,2.20
2023-01-01T21:50:24.338Z,2.70
2023-01-01T21:53:34.906Z,2.42
2023-01-01T21:56:39.956Z,2.30
2023-01-01T21:59:46.065Z,2.70
2023-01-01T22:02:49.467Z,2.33
2023-01-01T22:05:59.029Z,2.38
2023-01-01T22:09:10.920Z,2.47
2023-01-01T22:12:13.773Z,2.92
2023-01-01T22:15:28.004Z,2.40
2023-01-01T22:18:32.688Z,2.40
2023-01-01T22:21:36.148Z,2.60
2023-01-01T22:24:38.916Z,2.60
2023-01-01T22:27:41.759Z,2.58
2023-01-01T22:30:44.700Z,2.23
2023-01-01T22:33:48.498Z,2.58
2023-01-01T22:36:51.246Z,2.60
2023-01-01T22:39:54.132Z,2.10
2023-01-01T22:43:10.727Z,2.60
2023-01-01T22:46:18.116Z,2.33
2023-01-01T22:49:34.301Z,2.20
2023-01-01T22:52:37.073Z,2.65
2023-01-01T22:55:39.872Z,2.60
2023-01-01T22:58:42.811Z,2.35
2023-01-01T23:01:45.612Z,2.00
2023-01-01T23:04:48.352Z,2.45
2023-01-01T23:07:51.187Z,3.22
2023-01-01T23:10:54.300Z,2.15
2023-01-01T23:14:29.446Z,2.80
2023-01-01T23:17:32.221Z,2.97
2023-01-01T23:20:35.383Z,2.45
2023-01-01T23:23:39.441Z,2.75
2023-01-01T23:26:43.123Z,2.58
2023-01-01T23:29:49.017Z,2.67
2023-01-01T23:32:52.045Z,2.53
2023-01-01T23:35:55.143Z,2.80
2023-01-01T23:38:58.168Z,2.30
2023-01-01T23:42:01.224Z,2.38
2023-01-01T23:45:04.612Z,2.47
2023-01-01T23:48:08.229Z,2.47
2023-01-01T23:51:12.240Z,3.13
2023-01-01T23:54:15.090Z,2.67
2023-01-01T23:57:18.039Z,2.40
